Time;durP1;ratioP1;P1;durP2;ratioP2;P2;SDS_P1;SDS_P2;PMS_P1;PMS_P2;Temp;Humidity;BMP_temperature;BMP_pressure;BME280_temperature;BME280_humidity;BME280_pressure;Samples;Min_cycle;Max_cycle;Signal;HPM_P1;HPM_P2
2022/09/20 00:01:52;;;;;;;17.35;3.03;;;11.50;99.90;;;;;;5051653;28;20503;-71
2022/09/20 00:04:18;;;;;;;21.77;4.20;;;11.50;99.90;;;;;;5055571;28;20209;-71
2022/09/20 00:06:44;;;;;;;21.65;2.83;;;11.40;99.90;;;;;;5039560;28;20056;-72
2022/09/20 00:09:09;;;;;;;20.17;3.20;;;11.40;99.90;;;;;;5066990;28;20044;-72
2022/09/20 00:11:36;;;;;;;20.08;2.80;;;11.40;99.90;;;;;;5088769;28;20115;-71
2022/09/20 00:14:04;;;;;;;35.72;4.47;;;11.40;99.90;;;;;;5051940;28;20054;-72
2022/09/20 00:16:33;;;;;;;17.38;2.92;;;11.40;99.90;;;;;;5070370;28;20434;-72
2022/09/20 00:19:02;;;;;;;23.17;3.45;;;11.40;99.90;;;;;;5064912;28;20097;-71
2022/09/20 00:21:30;;;;;;;18.95;2.63;;;11.40;99.90;;;;;;5069474;28;20052;-72
2022/09/20 00:23:57;;;;;;;21.13;2.67;;;11.30;99.90;;;;;;5070219;28;20052;-72
2022/09/20 00:26:25;;;;;;;14.65;2.28;;;11.30;99.90;;;;;;5051987;28;20123;-72
2022/09/20 00:28:50;;;;;;;12.95;1.90;;;11.30;99.90;;;;;;5053900;28;20061;-72
2022/09/20 00:31:17;;;;;;;18.55;2.35;;;11.20;99.90;;;;;;5043282;28;20053;-72
2022/09/20 00:36:27;;;;;;;12.98;2.13;;;11.20;99.90;;;;;;5046297;28;20055;-72
2022/09/20 00:39:01;;;;;;;16.88;2.10;;;11.10;99.90;;;;;;5045230;28;20047;-72
2022/09/20 00:41:27;;;;;;;15.52;2.30;;;11.10;99.90;;;;;;5046350;28;20376;-71
2022/09/20 00:43:53;;;;;;;15.48;1.80;;;11.10;99.90;;;;;;5028676;28;20498;-72
2022/09/20 00:46:28;;;;;;;15.27;2.35;;;11.10;99.90;;;;;;5045732;28;20049;-71
2022/09/20 00:49:02;;;;;;;20.10;2.42;;;11.00;99.90;;;;;;5044248;28;20045;-71
2022/09/20 00:51:37;;;;;;;13.48;1.92;;;11.00;99.90;;;;;;5046267;28;20052;-72
2022/09/20 00:54:07;;;;;;;20.93;2.33;;;11.00;99.90;;;;;;5047382;28;20479;-71
2022/09/20 00:56:37;;;;;;;12.40;1.70;;;11.00;99.90;;;;;;5043993;28;20049;-72
2022/09/20 00:59:41;;;;;;;9.77;1.50;;;11.00;99.90;;;;;;5045289;28;20045;-71
2022/09/20 01:02:26;;;;;;;14.10;1.83;;;11.00;99.90;;;;;;5041679;28;20106;-72
2022/09/20 01:04:53;;;;;;;11.52;1.75;;;11.00;99.90;;;;;;5045311;28;20060;-71
2022/09/20 01:07:23;;;;;;;13.43;1.85;;;10.90;99.90;;;;;;5045472;28;20439;-71
2022/09/20 01:09:49;;;;;;;13.68;2.70;;;10.90;99.90;;;;;;5041015;28;20140;-72
2022/09/20 01:12:20;;;;;;;14.93;2.72;;;10.80;99.90;;;;;;5023930;28;20442;-72
2022/09/20 01:14:49;;;;;;;14.35;2.55;;;10.90;99.90;;;;;;5045834;28;20064;-72
2022/09/20 01:17:18;;;;;;;9.30;2.15;;;10.80;99.90;;;;;;5046416;28;20052;-72
2022/09/20 01:20:10;;;;;;;8.30;1.45;;;10.80;99.90;;;;;;5035015;28;20068;-72
2022/09/20 01:23:04;;;;;;;8.90;1.40;;;10.80;99.90;;;;;;5035639;28;20064;-72
2022/09/20 01:25:40;;;;;;;8.60;1.88;;;10.90;99.90;;;;;;5045369;28;20128;-71
2022/09/20 01:28:06;;;;;;;10.98;1.98;;;10.90;99.90;;;;;;5032839;28;20052;-71
2022/09/20 01:31:13;;;;;;;10.27;1.83;;;10.90;99.90;;;;;;5048152;28;20114;-72
2022/09/20 01:33:47;;;;;;;17.42;1.42;;;10.90;99.90;;;;;;5057254;28;20064;-72
2022/09/20 01:36:32;;;;;;;14.52;1.77;;;10.90;99.90;;;;;;5047284;28;20059;-71
2022/09/20 01:39:03;;;;;;;7.75;1.00;;;11.00;99.90;;;;;;5065340;28;20084;-71
2022/09/20 01:41:34;;;;;;;10.15;1.40;;;11.00;99.90;;;;;;5063171;28;20048;-71
2022/09/20 01:44:00;;;;;;;11.93;1.50;;;11.00;99.90;;;;;;5063722;28;20071;-71
2022/09/20 01:46:34;;;;;;;9.60;1.48;;;11.10;99.90;;;;;;5065393;28;20044;-72
2022/09/20 01:49:10;;;;;;;11.63;1.50;;;11.10;99.90;;;;;;5047542;28;20044;-71
2022/09/20 01:51:54;;;;;;;10.50;1.35;;;11.10;99.90;;;;;;5064108;28;20045;-72
2022/09/20 01:54:41;;;;;;;10.30;1.83;;;11.10;99.90;;;;;;5064404;28;20479;-71
2022/09/20 01:57:19;;;;;;;9.68;1.50;;;11.10;99.90;;;;;;5064495;28;20493;-71
2022/09/20 02:00:06;;;;;;;10.32;1.90;;;11.20;99.90;;;;;;5065517;28;20051;-71
2022/09/20 02:02:50;;;;;;;10.07;1.55;;;11.20;99.90;;;;;;5057322;28;20083;-72
2022/09/20 02:05:41;;;;;;;12.55;1.88;;;11.10;99.90;;;;;;5064228;28;20084;-71
2022/09/20 02:08:48;;;;;;;12.13;1.58;;;11.10;99.90;;;;;;5066094;28;20063;-71
2022/09/20 02:11:22;;;;;;;12.52;1.33;;;11.10;99.90;;;;;;5053458;28;20111;-71
2022/09/20 02:14:09;;;;;;;12.80;1.55;;;11.10;99.90;;;;;;5068889;28;20041;-71
2022/09/20 02:16:55;;;;;;;9.15;1.52;;;11.10;99.90;;;;;;5056865;28;20092;-71
2022/09/20 02:19:50;;;;;;;11.38;1.55;;;11.20;99.90;;;;;;5067216;28;20044;-71
2022/09/20 02:22:15;;;;;;;9.55;1.60;;;11.20;99.90;;;;;;5067122;28;20138;-71
2022/09/20 02:25:03;;;;;;;14.43;1.63;;;11.30;99.90;;;;;;5052272;28;20098;-71
2022/09/20 02:27:58;;;;;;;10.68;1.30;;;11.30;99.90;;;;;;5080046;28;20036;-71
2022/09/20 02:30:33;;;;;;;14.77;1.95;;;11.20;99.90;;;;;;5058753;28;20502;-71
2022/09/20 02:33:23;;;;;;;11.32;1.73;;;11.20;99.90;;;;;;5068065;28;20504;-71
2022/09/20 02:36:00;;;;;;;19.88;2.00;;;11.30;99.90;;;;;;5068195;28;20080;-71
2022/09/20 02:38:58;;;;;;;19.02;3.35;;;11.30;99.90;;;;;;5037632;28;20052;-71
2022/09/20 02:41:45;;;;;;;14.52;1.70;;;11.30;99.90;;;;;;5046973;28;20051;-72
2022/09/20 02:44:23;;;;;;;15.70;2.22;;;11.30;99.90;;;;;;5069129;28;20110;-71
2022/09/20 02:47:15;;;;;;;11.90;1.48;;;11.40;99.90;;;;;;5052029;28;20314;-71
2022/09/20 02:49:51;;;;;;;15.55;2.00;;;11.50;99.90;;;;;;5066975;28;20109;-72
2022/09/20 02:52:25;;;;;;;12.95;1.45;;;11.50;99.90;;;;;;5068482;28;21006;-71
2022/09/20 02:54:59;;;;;;;14.05;1.63;;;11.60;99.90;;;;;;5051373;28;20422;-71
2022/09/20 02:57:47;;;;;;;9.40;1.40;;;11.70;99.90;;;;;;5039653;28;20160;-71
2022/09/20 03:00:22;;;;;;;11.73;1.05;;;11.70;99.90;;;;;;5049223;28;20456;-71
2022/09/20 03:03:09;;;;;;;10.02;1.25;;;11.70;99.90;;;;;;5050386;28;20048;-71
2022/09/20 03:05:41;;;;;;;7.10;1.05;;;11.80;99.90;;;;;;5068927;28;20403;-71
2022/09/20 03:08:33;;;;;;;12.75;1.50;;;11.80;99.90;;;;;;5066608;28;20376;-71
2022/09/20 03:11:20;;;;;;;12.20;1.13;;;11.80;99.90;;;;;;5064881;28;20545;-71
2022/09/20 03:14:14;;;;;;;7.95;1.10;;;11.80;99.90;;;;;;5069726;28;20060;-71
2022/09/20 03:16:52;;;;;;;13.48;1.48;;;11.80;99.90;;;;;;5065755;28;20120;-71
2022/09/20 03:19:42;;;;;;;11.40;1.42;;;11.90;99.90;;;;;;5066471;28;20478;-71
2022/09/20 03:22:29;;;;;;;8.85;1.40;;;11.80;99.90;;;;;;5068214;28;20520;-70
2022/09/20 03:25:15;;;;;;;11.93;1.50;;;11.90;99.90;;;;;;5053832;28;20055;-71
2022/09/20 03:27:55;;;;;;;5.65;0.88;;;11.90;99.90;;;;;;5047095;28;20146;-71
2022/09/20 03:30:27;;;;;;;10.23;1.48;;;11.90;99.90;;;;;;5070783;28;20086;-71
2022/09/20 03:33:18;;;;;;;8.18;1.50;;;11.90;99.90;;;;;;5069922;28;20555;-71
2022/09/20 03:35:56;;;;;;;11.77;1.38;;;11.90;99.90;;;;;;5054294;28;20101;-71
2022/09/20 03:39:21;;;;;;;7.55;1.45;;;11.90;99.90;;;;;;5068632;28;20127;-71
2022/09/20 03:42:24;;;;;;;11.98;1.60;;;11.80;99.90;;;;;;4981119;28;20489;-71
2022/09/20 03:45:02;;;;;;;8.75;1.40;;;11.70;99.90;;;;;;5069939;28;20494;-71
2022/09/20 03:47:43;;;;;;;11.25;1.55;;;11.60;99.90;;;;;;5053960;28;20043;-71
2022/09/20 03:50:31;;;;;;;16.38;2.15;;;11.50;99.90;;;;;;5068147;28;20048;-71
2022/09/20 03:53:25;;;;;;;8.90;1.35;;;11.40;99.90;;;;;;5070625;28;20123;-71
2022/09/20 03:56:10;;;;;;;8.38;2.22;;;11.20;99.90;;;;;;5060184;28;20048;-71
2022/09/20 03:58:59;;;;;;;11.50;1.88;;;11.10;99.90;;;;;;5067420;28;20502;-71
2022/09/20 04:01:37;;;;;;;7.40;1.13;;;11.00;99.90;;;;;;5070085;28;20565;-71
2022/09/20 04:04:03;;;;;;;7.72;1.50;;;10.90;99.90;;;;;;5057193;28;20040;-71
2022/09/20 04:06:29;;;;;;;17.85;2.03;;;10.80;99.90;;;;;;5069926;28;20052;-71
2022/09/20 04:09:24;;;;;;;11.52;1.98;;;10.80;99.90;;;;;;5052577;28;20048;-71
2022/09/20 04:12:18;;;;;;;12.30;1.60;;;10.70;99.90;;;;;;5069428;28;20055;-71
2022/09/20 04:15:16;;;;;;;7.78;1.27;;;10.70;99.90;;;;;;5069603;28;20047;-71
2022/09/20 04:18:31;;;;;;;6.75;1.00;;;10.60;99.90;;;;;;5052527;28;20187;-71
2022/09/20 04:21:22;;;;;;;14.38;1.52;;;10.50;99.90;;;;;;4975947;28;20054;-71
2022/09/20 04:24:06;;;;;;;13.32;1.65;;;10.40;99.90;;;;;;5066227;28;20052;-71
2022/09/20 04:26:46;;;;;;;8.52;1.45;;;10.40;99.90;;;;;;5039254;28;20044;-71
2022/09/20 04:29:36;;;;;;;13.57;1.30;;;10.40;99.90;;;;;;5068700;28;20055;-70
2022/09/20 04:32:02;;;;;;;10.57;1.55;;;10.30;99.90;;;;;;5069063;28;20047;-70
2022/09/20 04:37:34;;;;;;;8.82;1.40;;;10.20;99.90;;;;;;5068914;28;20086;-71
2022/09/20 04:40:16;;;;;;;9.75;1.55;;;10.20;99.90;;;;;;5069872;28;20102;-71
2022/09/20 04:43:16;;;;;;;11.52;1.83;;;10.20;99.90;;;;;;5062143;28;20087;-72
2022/09/20 04:45:53;;;;;;;7.38;1.50;;;10.20;99.90;;;;;;5075704;28;20090;-71
2022/09/20 04:48:34;;;;;;;7.43;1.35;;;10.20;99.90;;;;;;5050756;28;20052;-71
2022/09/20 04:51:25;;;;;;;7.50;1.90;;;10.10;99.90;;;;;;5068711;28;20052;-71
2022/09/20 04:54:05;;;;;;;12.75;1.42;;;10.00;99.90;;;;;;5044840;28;20055;-71
2022/09/20 04:56:37;;;;;;;11.27;1.60;;;9.90;99.90;;;;;;5069142;28;20051;-71
2022/09/20 04:59:09;;;;;;;9.07;1.50;;;9.80;99.90;;;;;;5052102;28;20130;-71
2022/09/20 05:02:05;;;;;;;10.63;1.27;;;9.70;99.90;;;;;;5044487;28;20430;-71
2022/09/20 05:05:03;;;;;;;18.05;1.48;;;9.60;99.90;;;;;;5033975;28;20062;-71
2022/09/20 05:08:00;;;;;;;9.00;1.65;;;9.50;99.90;;;;;;5067786;28;20135;-71
2022/09/20 05:10:39;;;;;;;5.25;1.10;;;9.40;99.90;;;;;;5052595;28;20397;-71
2022/09/20 05:13:20;;;;;;;10.48;1.48;;;9.40;99.90;;;;;;5072567;28;20257;-71
2022/09/20 05:15:57;;;;;;;9.57;1.48;;;9.40;99.90;;;;;;5067561;28;20047;-71
2022/09/20 05:18:47;;;;;;;14.25;1.90;;;9.30;99.90;;;;;;5067594;28;20048;-71
2022/09/20 05:21:43;;;;;;;7.05;1.63;;;9.30;99.90;;;;;;5085699;28;20055;-71
2022/09/20 05:24:34;;;;;;;6.75;1.15;;;9.20;99.90;;;;;;5068624;28;20494;-71
2022/09/20 05:27:02;;;;;;;9.77;1.42;;;9.20;99.90;;;;;;5052607;28;20166;-71
2022/09/20 05:29:41;;;;;;;13.98;2.45;;;9.20;99.90;;;;;;5065652;28;20064;-71
2022/09/20 05:32:47;;;;;;;12.80;1.73;;;9.10;99.90;;;;;;5069030;28;20150;-70
2022/09/20 05:35:18;;;;;;;5.60;1.95;;;9.00;99.90;;;;;;5056790;28;20048;-71
2022/09/20 05:38:18;;;;;;;16.38;1.77;;;8.90;99.90;;;;;;5050917;28;20056;-71
2022/09/20 05:41:06;;;;;;;8.57;1.27;;;8.90;99.90;;;;;;5068133;28;20498;-71
2022/09/20 05:43:53;;;;;;;8.95;1.52;;;8.80;99.90;;;;;;5053589;28;20484;-71
2022/09/20 05:47:04;;;;;;;13.88;2.28;;;8.80;99.90;;;;;;5067467;28;20393;-71
2022/09/20 05:49:48;;;;;;;11.65;1.35;;;8.80;99.90;;;;;;5048565;28;20095;-71
2022/09/20 05:52:48;;;;;;;12.80;1.42;;;8.80;99.90;;;;;;5055905;28;20055;-71
2022/09/20 05:55:13;;;;;;;19.85;2.08;;;8.80;99.90;;;;;;5066175;28;20043;-71
2022/09/20 05:57:42;;;;;;;9.20;1.25;;;8.80;99.90;;;;;;5068460;28;20466;-71
2022/09/20 06:00:18;;;;;;;9.02;0.95;;;8.90;99.90;;;;;;5067754;28;20069;-71
2022/09/20 06:03:03;;;;;;;7.40;1.35;;;9.00;99.90;;;;;;5068039;28;20048;-71
2022/09/20 06:05:41;;;;;;;11.57;1.58;;;9.00;99.90;;;;;;5068325;28;20054;-70
2022/09/20 06:08:30;;;;;;;7.53;1.77;;;9.20;99.90;;;;;;5065881;28;20059;-70
2022/09/20 06:11:21;;;;;;;13.00;1.67;;;9.20;99.90;;;;;;5065846;28;20055;-70
2022/09/20 06:14:15;;;;;;;7.40;1.40;;;9.20;99.90;;;;;;5067680;28;20135;-70
2022/09/20 06:16:58;;;;;;;9.27;1.20;;;9.30;99.90;;;;;;5055803;28;20543;-71
2022/09/20 06:19:45;;;;;;;10.10;1.80;;;9.40;99.90;;;;;;5050184;28;20122;-70
2022/09/20 06:22:33;;;;;;;8.60;1.55;;;9.40;99.90;;;;;;5085513;28;20055;-70
2022/09/20 06:25:08;;;;;;;15.75;1.75;;;9.50;99.90;;;;;;5051841;28;20059;-70
2022/09/20 06:27:40;;;;;;;7.60;1.40;;;9.50;99.90;;;;;;5068280;28;20403;-70
2022/09/20 06:30:23;;;;;;;13.27;1.75;;;9.60;99.90;;;;;;5050280;28;20056;-70
2022/09/20 06:33:04;;;;;;;16.98;1.90;;;9.70;99.90;;;;;;5066079;28;20059;-71
2022/09/20 06:35:48;;;;;;;11.55;1.60;;;9.70;99.90;;;;;;5067941;28;20052;-71
2022/09/20 06:41:35;;;;;;;11.15;2.03;;;10.10;99.90;;;;;;5039377;28;20059;-70
2022/09/20 06:44:02;;;;;;;8.60;1.92;;;10.40;99.90;;;;;;5066036;28;20028;-71
2022/09/20 06:46:33;;;;;;;10.52;1.60;;;10.80;99.90;;;;;;5067666;28;20154;-70
2022/09/20 06:48:59;;;;;;;12.07;2.00;;;11.00;99.90;;;;;;5051468;28;20458;-70
2022/09/20 06:51:27;;;;;;;10.48;1.50;;;11.20;99.90;;;;;;5066877;28;20059;-71
2022/09/20 06:53:56;;;;;;;8.68;1.70;;;11.50;99.90;;;;;;5068054;28;20055;-71
2022/09/20 06:56:25;;;;;;;10.57;1.35;;;11.70;99.90;;;;;;5068691;28;20114;-71
2022/09/20 06:58:51;;;;;;;5.82;1.45;;;11.80;99.90;;;;;;5057906;28;20109;-71
2022/09/20 07:01:18;;;;;;;6.57;1.40;;;12.00;99.90;;;;;;5089122;28;20143;-71
2022/09/20 07:03:44;;;;;;;15.68;2.60;;;12.10;99.90;;;;;;5070695;28;20050;-71
2022/09/20 07:06:11;;;;;;;5.68;1.30;;;12.30;99.90;;;;;;5071801;28;20134;-70
2022/09/20 07:08:37;;;;;;;10.85;1.58;;;12.40;99.90;;;;;;5053566;28;20119;-70
2022/09/20 07:11:05;;;;;;;7.18;1.50;;;12.40;99.90;;;;;;5058617;28;20036;-70
2022/09/20 07:13:30;;;;;;;12.35;1.63;;;12.60;99.90;;;;;;5086934;28;20054;-70
2022/09/20 07:16:02;;;;;;;12.15;1.75;;;12.60;99.90;;;;;;5071536;28;20130;-70
2022/09/20 07:18:28;;;;;;;8.85;1.40;;;12.70;99.90;;;;;;5070466;28;20480;-70
2022/09/20 07:20:57;;;;;;;6.93;1.67;;;12.60;99.90;;;;;;5042520;28;20063;-70
2022/09/20 07:23:28;;;;;;;6.00;1.10;;;12.70;99.90;;;;;;5071345;28;20109;-70
2022/09/20 07:25:59;;;;;;;7.82;1.20;;;13.00;99.90;;;;;;5069305;28;20297;-70
2022/09/20 07:28:30;;;;;;;15.43;2.00;;;12.90;99.90;;;;;;5088960;28;20121;-70
2022/09/20 07:30:56;;;;;;;13.80;1.83;;;12.80;99.90;;;;;;5068551;28;20405;-70
2022/09/20 07:33:23;;;;;;;11.25;1.50;;;12.60;99.90;;;;;;5068272;28;20055;-70
2022/09/20 07:35:53;;;;;;;5.05;1.42;;;12.50;99.90;;;;;;5069449;28;20056;-69
2022/09/20 07:38:20;;;;;;;10.43;2.17;;;12.40;99.90;;;;;;5070198;28;20036;-69
2022/09/20 07:41:01;;;;;;;15.27;2.22;;;12.30;99.90;;;;;;5063179;28;20397;-69
2022/09/20 07:43:27;;;;;;;7.75;1.67;;;12.10;99.90;;;;;;5069852;28;20390;-69
2022/09/20 07:45:55;;;;;;;10.13;1.85;;;12.10;99.90;;;;;;5068274;28;20131;-69
2022/09/20 07:48:26;;;;;;;10.38;1.75;;;12.00;99.90;;;;;;5061109;28;20501;-69
2022/09/20 07:50:54;;;;;;;7.47;1.55;;;12.00;99.90;;;;;;5053478;28;20075;-69
2022/09/20 07:53:20;;;;;;;17.85;1.98;;;11.90;99.90;;;;;;5065601;28;20497;-69
2022/09/20 07:56:04;;;;;;;7.25;1.15;;;11.90;99.90;;;;;;5067671;28;20056;-69
2022/09/20 07:58:32;;;;;;;6.45;1.25;;;12.00;99.90;;;;;;5067245;28;20150;-70
2022/09/20 08:01:01;;;;;;;11.95;1.30;;;12.30;99.90;;;;;;5068254;28;20097;-70
2022/09/20 08:03:29;;;;;;;12.50;1.20;;;12.70;99.90;;;;;;5070051;28;20042;-69
2022/09/20 08:06:10;;;;;;;12.77;2.05;;;13.10;99.90;;;;;;5064374;28;20040;-69
2022/09/20 08:08:39;;;;;;;4.38;1.10;;;13.40;99.90;;;;;;5073729;28;20376;-69
2022/09/20 08:11:14;;;;;;;7.95;1.10;;;13.60;99.90;;;;;;5051386;28;20303;-69
2022/09/20 08:13:44;;;;;;;4.70;0.80;;;13.80;99.90;;;;;;5066834;28;20048;-69
2022/09/20 08:16:12;;;;;;;8.85;1.00;;;13.90;99.90;;;;;;5085694;28;20052;-69
2022/09/20 08:18:45;;;;;;;6.18;1.00;;;14.00;99.90;;;;;;5068962;28;20043;-69
2022/09/20 08:21:11;;;;;;;7.82;1.10;;;14.20;99.90;;;;;;5070035;28;20044;-68
2022/09/20 08:23:39;;;;;;;7.28;1.38;;;14.20;99.90;;;;;;5085884;28;20051;-68
2022/09/20 08:26:06;;;;;;;5.75;1.00;;;14.50;99.90;;;;;;5068356;28;20575;-68
2022/09/20 08:28:32;;;;;;;2.70;0.88;;;14.70;99.90;;;;;;5062333;28;20063;-68
2022/09/20 08:31:07;;;;;;;7.90;1.45;;;14.90;99.90;;;;;;5063054;28;20052;-68
2022/09/20 08:33:35;;;;;;;8.10;1.30;;;14.90;99.90;;;;;;5074487;28;20050;-68
2022/09/20 08:36:01;;;;;;;10.38;1.27;;;15.00;99.90;;;;;;5066010;28;20032;-68
2022/09/20 08:38:27;;;;;;;10.05;1.02;;;15.20;99.90;;;;;;5067451;28;20106;-68
2022/09/20 08:41:01;;;;;;;4.70;1.00;;;15.30;99.90;;;;;;5068062;28;20078;-68
2022/09/20 08:43:33;;;;;;;2.50;0.63;;;15.30;99.90;;;;;;5086331;28;20083;-68
2022/09/20 08:46:01;;;;;;;8.48;1.30;;;14.90;94.20;;;;;;5067441;28;20090;-67
2022/09/20 08:48:32;;;;;;;7.53;1.40;;;14.80;98.80;;;;;;5061195;28;20436;-67
2022/09/20 08:51:04;;;;;;;8.00;1.23;;;14.80;99.90;;;;;;5057139;28;20154;-67
2022/09/20 08:53:31;;;;;;;13.70;2.05;;;14.90;99.90;;;;;;5068123;28;20048;-69
2022/09/20 08:55:58;;;;;;;8.88;1.10;;;15.00;99.90;;;;;;5048745;28;20113;-69
2022/09/20 08:58:25;;;;;;;7.93;0.93;;;15.10;99.90;;;;;;5067440;28;20055;-68
2022/09/20 09:00:51;;;;;;;4.22;0.80;;;15.30;99.90;;;;;;5068119;28;20044;-69
2022/09/20 09:03:17;;;;;;;6.60;1.63;;;15.30;93.80;;;;;;5052965;28;20066;-69
2022/09/20 09:05:46;;;;;;;6.55;0.93;;;15.30;93.90;;;;;;5050676;28;20047;-69
2022/09/20 09:08:16;;;;;;;7.40;0.90;;;15.40;91.70;;;;;;5067024;28;20563;-68
2022/09/20 09:10:45;;;;;;;4.30;0.98;;;15.40;94.60;;;;;;5066588;28;20058;-69
2022/09/20 09:13:42;;;;;;;6.13;1.00;;;15.50;99.90;;;;;;5068183;28;20119;-70
2022/09/20 09:16:14;;;;;;;3.85;0.98;;;15.40;97.60;;;;;;5068315;28;20498;-68
2022/09/20 09:18:42;;;;;;;4.78;1.20;;;15.40;94.00;;;;;;5057127;28;20044;-68
2022/09/20 09:21:15;;;;;;;7.72;1.02;;;15.30;95.40;;;;;;5066383;28;20047;-68
2022/09/20 09:24:05;;;;;;;4.97;1.17;;;15.30;97.70;;;;;;5043856;28;20045;-68
2022/09/20 09:26:36;;;;;;;6.80;1.83;;;15.30;95.30;;;;;;5068024;28;20035;-68
2022/09/20 09:29:22;;;;;;;8.30;1.30;;;15.10;93.30;;;;;;5041155;28;20059;-68
2022/09/20 09:31:50;;;;;;;9.85;1.50;;;14.90;96.20;;;;;;5062913;28;20045;-68
2022/09/20 09:34:24;;;;;;;7.50;1.25;;;14.60;99.90;;;;;;5085426;28;20040;-68
2022/09/20 09:36:50;;;;;;;5.65;1.20;;;14.50;99.90;;;;;;5065935;28;20162;-68
2022/09/20 09:39:32;;;;;;;9.45;1.23;;;14.30;99.90;;;;;;5085644;28;20134;-68
2022/09/20 09:41:59;;;;;;;9.02;1.75;;;14.10;99.90;;;;;;5066704;28;20118;-68
2022/09/20 09:44:32;;;;;;;6.50;1.23;;;14.00;99.90;;;;;;5040567;28;20052;-68
2022/09/20 09:46:59;;;;;;;7.25;1.88;;;13.90;99.90;;;;;;5017776;28;20050;-68
2022/09/20 09:49:29;;;;;;;3.35;0.70;;;13.80;99.90;;;;;;5051515;28;20057;-69
2022/09/20 09:52:00;;;;;;;3.45;0.90;;;13.80;99.90;;;;;;5080443;28;20041;-68
2022/09/20 09:54:29;;;;;;;5.10;1.08;;;13.80;99.90;;;;;;5043289;28;20056;-68
2022/09/20 09:57:09;;;;;;;5.40;1.10;;;13.80;99.90;;;;;;5065966;28;20085;-69
2022/09/20 10:00:00;;;;;;;8.25;1.10;;;13.90;99.90;;;;;;5059937;28;20487;-68
2022/09/20 10:02:34;;;;;;;6.78;1.20;;;14.00;99.90;;;;;;5065648;28;20405;-68
2022/09/20 10:05:26;;;;;;;6.55;1.08;;;14.20;99.90;;;;;;5068230;28;20135;-68
2022/09/20 10:08:14;;;;;;;5.63;0.85;;;14.60;99.90;;;;;;5059193;28;20486;-68
2022/09/20 10:11:25;;;;;;;7.88;1.20;;;14.80;99.90;;;;;;5055299;28;20368;-68
2022/09/20 10:14:09;;;;;;;6.22;1.52;;;14.90;99.90;;;;;;4974852;28;20046;-68
2022/09/20 10:16:53;;;;;;;10.90;1.40;;;15.00;99.10;;;;;;4957074;28;20219;-68
2022/09/20 10:19:52;;;;;;;9.52;1.33;;;14.80;95.90;;;;;;5026413;28;20094;-68
2022/09/20 10:22:45;;;;;;;8.05;1.30;;;14.60;89.20;;;;;;5061086;28;20052;-68
2022/09/20 10:25:43;;;;;;;6.00;1.55;;;14.60;91.30;;;;;;5067240;28;20048;-68
2022/09/20 10:28:47;;;;;;;7.35;1.88;;;14.60;90.60;;;;;;5065237;28;20141;-68
2022/09/20 10:31:21;;;;;;;6.05;0.88;;;14.60;97.70;;;;;;5064585;28;20091;-67
2022/09/20 10:33:50;;;;;;;9.90;1.23;;;14.60;92.80;;;;;;5089004;28;20375;-67
2022/09/20 10:36:28;;;;;;;3.50;1.20;;;14.70;91.30;;;;;;5068964;28;20505;-67
2022/09/20 10:39:12;;;;;;;8.60;1.65;;;14.80;92.90;;;;;;5071045;28;20043;-67
2022/09/20 10:45:30;;;;;;;7.53;1.33;;;15.00;79.00;;;;;;5068960;28;20473;-67
2022/09/20 10:48:17;;;;;;;7.60;1.27;;;15.00;79.90;;;;;;5054706;28;20048;-67
2022/09/20 10:51:02;;;;;;;8.00;1.33;;;15.10;92.80;;;;;;5053143;28;20043;-67
2022/09/20 10:53:47;;;;;;;8.55;1.60;;;15.10;83.00;;;;;;5069753;28;20075;-67
2022/09/20 10:56:14;;;;;;;5.53;0.90;;;15.10;78.70;;;;;;5063918;28;20052;-67
2022/09/20 10:59:22;;;;;;;9.10;1.67;;;15.20;81.10;;;;;;5069804;28;20044;-67
2022/09/20 11:02:12;;;;;;;4.50;1.30;;;15.20;81.30;;;;;;5053100;28;20482;-67
2022/09/20 11:05:03;;;;;;;5.05;1.02;;;15.10;72.40;;;;;;5064060;28;20056;-67
2022/09/20 11:07:28;;;;;;;6.43;1.52;;;15.20;87.10;;;;;;5057465;28;20052;-67
2022/09/20 11:10:04;;;;;;;9.65;1.27;;;15.30;89.40;;;;;;5089509;28;20047;-67
2022/09/20 11:12:42;;;;;;;6.53;1.33;;;15.30;82.70;;;;;;5070106;28;20056;-67
2022/09/20 11:15:22;;;;;;;7.35;1.20;;;15.30;74.10;;;;;;5060671;28;20145;-67
2022/09/20 11:18:06;;;;;;;7.47;1.00;;;15.40;78.70;;;;;;5089698;28;20432;-66
2022/09/20 11:20:42;;;;;;;5.15;1.20;;;15.50;72.80;;;;;;5053719;28;20286;-67
2022/09/20 11:23:17;;;;;;;5.50;1.08;;;15.40;79.70;;;;;;5052835;28;20063;-67
2022/09/20 11:25:50;;;;;;;7.88;1.30;;;15.30;79.90;;;;;;5089586;28;20048;-67
2022/09/20 11:28:41;;;;;;;4.80;1.15;;;15.40;77.80;;;;;;5069197;28;20055;-67
2022/09/20 11:31:20;;;;;;;8.30;1.40;;;15.50;67.20;;;;;;5070590;28;20051;-67
2022/09/20 11:33:56;;;;;;;11.75;1.63;;;15.80;85.80;;;;;;5087599;28;20123;-66
2022/09/20 11:36:40;;;;;;;6.03;1.00;;;15.80;51.30;;;;;;5070073;28;20047;-67
2022/09/20 11:39:21;;;;;;;6.57;1.30;;;15.90;62.70;;;;;;5070984;28;20059;-67
2022/09/20 11:41:50;;;;;;;6.78;1.30;;;15.90;64.90;;;;;;5050943;28;20047;-67
2022/09/20 11:44:18;;;;;;;10.52;1.55;;;16.00;41.70;;;;;;5068309;28;20052;-67
2022/09/20 11:47:00;;;;;;;11.50;1.52;;;15.90;55.20;;;;;;5069999;28;20547;-66
2022/09/20 11:49:52;;;;;;;7.28;1.70;;;16.10;77.40;;;;;;5052427;28;20063;-67
2022/09/20 11:52:36;;;;;;;10.25;2.08;;;16.20;74.10;;;;;;5079766;28;20553;-67
2022/09/20 11:55:20;;;;;;;7.13;1.77;;;16.10;84.70;;;;;;5067904;28;20869;-67
2022/09/20 11:58:00;;;;;;;6.53;1.33;;;16.10;84.10;;;;;;5069673;28;20495;-67
2022/09/20 12:00:32;;;;;;;7.75;1.50;;;16.00;83.30;;;;;;5071032;28;20394;-66
2022/09/20 12:02:58;;;;;;;12.98;1.92;;;16.00;71.50;;;;;;5067261;28;20055;-66
2022/09/20 12:05:34;;;;;;;5.75;1.15;;;16.00;68.60;;;;;;5066911;28;20059;-66
2022/09/20 12:08:03;;;;;;;8.60;1.33;;;16.00;77.60;;;;;;5080053;28;20447;-67
2022/09/20 12:10:36;;;;;;;6.57;1.25;;;16.00;84.70;;;;;;5069903;28;20089;-66
2022/09/20 12:13:04;;;;;;;4.38;1.00;;;16.00;72.80;;;;;;5070650;28;20043;-66
2022/09/20 12:15:34;;;;;;;4.57;1.27;;;16.00;70.80;;;;;;5068171;28;20108;-66
2022/09/20 12:18:07;;;;;;;9.40;1.50;;;16.00;78.00;;;;;;5088614;28;20044;-67
2022/09/20 12:20:33;;;;;;;8.85;1.20;;;16.00;73.70;;;;;;5086327;28;20066;-66
2022/09/20 12:23:39;;;;;;;6.57;0.98;;;15.90;60.80;;;;;;5083879;28;20044;-66
2022/09/20 12:26:14;;;;;;;8.15;1.10;;;15.90;68.30;;;;;;5086646;28;20055;-66
2022/09/20 12:28:51;;;;;;;8.63;1.33;;;15.80;68.90;;;;;;5068803;28;20063;-66
2022/09/20 12:31:30;;;;;;;4.65;0.90;;;15.70;87.70;;;;;;5087765;28;20616;-66
2022/09/20 12:34:02;;;;;;;4.75;1.10;;;15.60;83.00;;;;;;5087594;28;20456;-67
2022/09/20 12:36:33;;;;;;;2.78;0.80;;;15.70;77.30;;;;;;5086219;28;20405;-66
2022/09/20 12:39:21;;;;;;;6.72;0.80;;;15.80;62.40;;;;;;5060789;28;20432;-66
2022/09/20 12:42:05;;;;;;;2.97;0.75;;;16.00;67.90;;;;;;5068593;28;20054;-66
2022/09/20 12:44:53;;;;;;;4.00;0.93;;;16.10;72.50;;;;;;5087894;28;20044;-66
2022/09/20 12:47:25;;;;;;;2.83;0.77;;;16.10;50.80;;;;;;5087187;28;20055;-66
2022/09/20 12:55:44;;;;;;;11.50;1.17;;;16.00;62.30;;;;;;5086257;28;20091;-66
2022/09/20 13:00:45;;;;;;;6.72;1.38;;;16.30;72.00;;;;;;5087011;28;20123;-66
2022/09/20 13:03:14;;;;;;;9.70;1.48;;;16.50;75.30;;;;;;5077181;28;20525;-66
2022/09/20 13:05:45;;;;;;;7.22;1.10;;;16.50;66.50;;;;;;5074501;28;20046;-66
2022/09/20 13:08:12;;;;;;;3.55;0.75;;;16.50;60.70;;;;;;5068109;28;20483;-66
2022/09/20 13:10:43;;;;;;;12.98;1.27;;;16.40;60.50;;;;;;5068816;28;20469;-66
2022/09/20 13:13:21;;;;;;;4.35;1.02;;;16.40;68.30;;;;;;5086611;28;20478;-66
2022/09/20 13:15:51;;;;;;;10.93;1.27;;;16.20;61.70;;;;;;5066785;28;20052;-66
2022/09/20 13:18:17;;;;;;;6.72;1.02;;;16.00;68.90;;;;;;5087293;28;20044;-66
2022/09/20 13:20:43;;;;;;;3.17;0.75;;;16.00;64.40;;;;;;5064569;28;20044;-66
2022/09/20 13:23:17;;;;;;;4.95;1.00;;;16.20;68.90;;;;;;5087206;28;20543;-66
2022/09/20 13:25:44;;;;;;;7.30;1.23;;;16.30;67.20;;;;;;5086109;28;20461;-66
2022/09/20 13:28:27;;;;;;;3.72;1.40;;;16.40;63.20;;;;;;5080860;28;20114;-66
2022/09/20 13:31:32;;;;;;;7.68;1.73;;;16.40;73.00;;;;;;5087585;28;20387;-67
2022/09/20 13:34:22;;;;;;;7.97;1.13;;;16.40;71.70;;;;;;5085944;28;20117;-66
2022/09/20 13:36:51;;;;;;;3.40;0.70;;;16.30;61.20;;;;;;5083653;28;20056;-66
2022/09/20 13:39:43;;;;;;;3.90;1.00;;;16.20;64.00;;;;;;5078004;28;20257;-66
2022/09/20 13:42:18;;;;;;;2.95;0.88;;;16.10;48.20;;;;;;5072161;28;20037;-66
2022/09/20 13:44:45;;;;;;;3.97;0.68;;;16.10;64.70;;;;;;5086875;28;20044;-66
2022/09/20 13:47:23;;;;;;;3.10;0.70;;;16.00;61.10;;;;;;5085728;28;20040;-66
2022/09/20 13:49:50;;;;;;;3.80;1.08;;;15.90;60.70;;;;;;5068279;28;20075;-66
2022/09/20 13:52:27;;;;;;;2.40;0.70;;;15.80;60.80;;;;;;5085122;28;20110;-66
2022/09/20 13:54:54;;;;;;;5.18;0.80;;;15.80;72.10;;;;;;5084754;28;20047;-66
2022/09/20 13:57:29;;;;;;;4.13;1.02;;;15.80;71.30;;;;;;5068429;28;20059;-66
2022/09/20 13:59:56;;;;;;;5.68;0.82;;;15.70;71.60;;;;;;5067087;28;20096;-66